Main page
Satellite images 15-day forecastsClimateMarine weather Cyclones Lightning AirportsFAQ Newsletter About
Weather : Europe Africa North America South America Asia Australia-Oceania Others
Languages Contact

Birmingham, England

latitude: 52-27N, longitude: 001-44W, elevation: 99 m


METAR: EGBB 230750Z 31004KT 9999 -RA BKN038 07/07 Q1017
TAF: EGBB 230651Z 2306/2406 31006KT 9999 SCT030 TEMPO 2306/2312 8000 -RA PROB30 TEMPO 2306/2310 4000 RA PROB30 TEMPO 2321/2406 8000

Time: 08:16 (08:16 UTC)

Current weather observation

The report was made 26 minutes ago, at 07:50 UTC
Wind 4 kt from the Northwest
Temperature 7°C
Humidity 100%
Pressure 1017 hPa
Visibility 10 km or more
Broken clouds at a height of 3800 ft
light rain

Change units

Forecast

The report was made 1 hour and 25 minutes ago, at 06:51 UTC
Forecast valid from 23 at 06 UTC to 24 at 06 UTC
Wind 6 kt from the Northwest
Visibility 10 km or more
Scattered clouds at a height of 3000 ft
Temporary
from 23 at 06 UTC to 23 at 12 UTC
Visibility: 8000 m
light rain
Probability 30% :
Temporary
from 23 at 06 UTC to 23 at 10 UTC
Visibility: 4000 m
rain
Probability 30% :
Temporary
from 23 at 21 UTC to 24 at 06 UTC
Visibility: 8000 m
The information on this site is subject to a disclaimer
Weather : Europe Africa North America South America Asia Australia-Oceania Others
Satellite images 15-day forecastsClimateMarine weather Cyclones Lightning AirportsFAQ Languages Contact Newsletter About